sensor_id;sensor_type;location;lat;lon;timestamp;pressure;altitude;pressure_sealevel;temperature;humidity
55687;BME280;41911;52.362;4.978;2022-08-05T00:00:17;101650.87;;;20.45;40.98
55687;BME280;41911;52.362;4.978;2022-08-05T00:00:49;101650.43;;;20.47;41.05
55687;BME280;41911;52.362;4.978;2022-08-05T00:01:21;101651.30;;;20.78;41.11
55687;BME280;41911;52.362;4.978;2022-08-05T00:01:52;101647.52;;;20.48;41.09
55687;BME280;41911;52.362;4.978;2022-08-05T00:02:23;101650.75;;;20.57;40.94
55687;BME280;41911;52.362;4.978;2022-08-05T00:02:54;101651.26;;;20.60;41.05
55687;BME280;41911;52.362;4.978;2022-08-05T00:03:26;101650.65;;;20.95;40.79
55687;BME280;41911;52.362;4.978;2022-08-05T00:03:57;101653.03;;;20.70;40.71
55687;BME280;41911;52.362;4.978;2022-08-05T00:04:28;101653.82;;;21.26;40.66
55687;BME280;41911;52.362;4.978;2022-08-05T00:04:59;101654.62;;;20.77;40.90
55687;BME280;41911;52.362;4.978;2022-08-05T00:05:30;101658.98;;;20.47;41.13
55687;BME280;41911;52.362;4.978;2022-08-05T00:06:01;101659.04;;;20.68;40.97
55687;BME280;41911;52.362;4.978;2022-08-05T00:06:32;101661.19;;;20.51;41.06
55687;BME280;41911;52.362;4.978;2022-08-05T00:07:03;101661.06;;;20.90;41.09
55687;BME280;41911;52.362;4.978;2022-08-05T00:07:34;101662.89;;;20.46;40.97
55687;BME280;41911;52.362;4.978;2022-08-05T00:08:05;101667.87;;;20.35;41.04
55687;BME280;41911;52.362;4.978;2022-08-05T00:08:36;101668.44;;;20.88;40.92
55687;BME280;41911;52.362;4.978;2022-08-05T00:09:09;101671.40;;;21.07;40.94
55687;BME280;41911;52.362;4.978;2022-08-05T00:09:40;101672.59;;;20.94;40.94
55687;BME280;41911;52.362;4.978;2022-08-05T00:10:11;101675.56;;;20.40;41.23
55687;BME280;41911;52.362;4.978;2022-08-05T00:10:42;101678.28;;;20.66;41.18
55687;BME280;41911;52.362;4.978;2022-08-05T00:11:14;101681.04;;;21.09;41.01
55687;BME280;41911;52.362;4.978;2022-08-05T00:11:45;101680.04;;;20.80;40.85
55687;BME280;41911;52.362;4.978;2022-08-05T00:12:16;101676.05;;;21.21;40.97
55687;BME280;41911;52.362;4.978;2022-08-05T00:12:47;101675.57;;;20.85;40.90
55687;BME280;41911;52.362;4.978;2022-08-05T00:13:18;101670.59;;;21.00;41.06
55687;BME280;41911;52.362;4.978;2022-08-05T00:13:49;101668.22;;;20.79;41.01
55687;BME280;41911;52.362;4.978;2022-08-05T00:14:20;101666.67;;;20.69;41.02
55687;BME280;41911;52.362;4.978;2022-08-05T00:14:51;101663.22;;;20.53;41.04
55687;BME280;41911;52.362;4.978;2022-08-05T00:15:23;101664.22;;;20.45;41.11
55687;BME280;41911;52.362;4.978;2022-08-05T00:15:53;101665.63;;;20.78;41.04
55687;BME280;41911;52.362;4.978;2022-08-05T00:16:25;101663.05;;;21.07;41.06
55687;BME280;41911;52.362;4.978;2022-08-05T00:16:56;101662.80;;;20.84;40.94
55687;BME280;41911;52.362;4.978;2022-08-05T00:17:27;101660.70;;;20.80;40.86
55687;BME280;41911;52.362;4.978;2022-08-05T00:17:58;101661.11;;;20.99;41.02
55687;BME280;41911;52.362;4.978;2022-08-05T00:18:29;101661.46;;;20.79;41.30
55687;BME280;41911;52.362;4.978;2022-08-05T00:19:02;101661.49;;;20.96;41.29
55687;BME280;41911;52.362;4.978;2022-08-05T00:19:33;101662.00;;;20.87;41.37
55687;BME280;41911;52.362;4.978;2022-08-05T00:20:05;101660.10;;;20.89;41.42
55687;BME280;41911;52.362;4.978;2022-08-05T00:20:36;101659.60;;;20.62;41.57
55687;BME280;41911;52.362;4.978;2022-08-05T00:21:08;101659.50;;;20.76;41.22
55687;BME280;41911;52.362;4.978;2022-08-05T00:21:39;101662.01;;;21.18;41.06
55687;BME280;41911;52.362;4.978;2022-08-05T00:22:10;101663.50;;;20.78;41.28
55687;BME280;41911;52.362;4.978;2022-08-05T00:22:41;101661.91;;;21.07;41.13
55687;BME280;41911;52.362;4.978;2022-08-05T00:23:13;101660.35;;;20.53;41.33
55687;BME280;41911;52.362;4.978;2022-08-05T00:23:46;101662.09;;;20.84;41.34
55687;BME280;41911;52.362;4.978;2022-08-05T00:24:17;101662.34;;;20.96;41.38
55687;BME280;41911;52.362;4.978;2022-08-05T00:24:48;101661.81;;;20.89;41.40
55687;BME280;41911;52.362;4.978;2022-08-05T00:25:19;101661.52;;;20.63;41.51
55687;BME280;41911;52.362;4.978;2022-08-05T00:25:51;101658.94;;;20.26;41.47
55687;BME280;41911;52.362;4.978;2022-08-05T00:26:22;101661.71;;;20.88;41.53
55687;BME280;41911;52.362;4.978;2022-08-05T00:26:54;101662.60;;;20.56;41.52
55687;BME280;41911;52.362;4.978;2022-08-05T00:27:25;101662.20;;;20.50;41.75
55687;BME280;41911;52.362;4.978;2022-08-05T00:27:56;101660.85;;;20.50;41.82
55687;BME280;41911;52.362;4.978;2022-08-05T00:28:27;101661.31;;;20.79;41.61
55687;BME280;41911;52.362;4.978;2022-08-05T00:28:58;101662.45;;;20.55;41.48
55687;BME280;41911;52.362;4.978;2022-08-05T00:29:29;101664.78;;;20.72;41.51
55687;BME280;41911;52.362;4.978;2022-08-05T00:30:00;101665.03;;;20.51;41.37
55687;BME280;41911;52.362;4.978;2022-08-05T00:30:31;101666.29;;;20.79;41.36
55687;BME280;41911;52.362;4.978;2022-08-05T00:31:02;101665.57;;;21.11;41.31
55687;BME280;41911;52.362;4.978;2022-08-05T00:31:33;101665.20;;;20.74;41.30
55687;BME280;41911;52.362;4.978;2022-08-05T00:32:05;101664.50;;;21.04;41.42
55687;BME280;41911;52.362;4.978;2022-08-05T00:32:36;101665.32;;;21.11;41.27
55687;BME280;41911;52.362;4.978;2022-08-05T00:33:08;101661.80;;;20.10;41.86
55687;BME280;41911;52.362;4.978;2022-08-05T00:33:39;101663.48;;;20.77;41.79
55687;BME280;41911;52.362;4.978;2022-08-05T00:34:10;101657.47;;;20.41;41.66
55687;BME280;41911;52.362;4.978;2022-08-05T00:34:42;101656.23;;;20.59;41.90
55687;BME280;41911;52.362;4.978;2022-08-05T00:35:14;101654.07;;;20.56;41.89
55687;BME280;41911;52.362;4.978;2022-08-05T00:35:46;101654.81;;;20.69;41.86
55687;BME280;41911;52.362;4.978;2022-08-05T00:36:19;101652.72;;;20.72;41.82
55687;BME280;41911;52.362;4.978;2022-08-05T00:36:50;101652.01;;;20.32;41.91
55687;BME280;41911;52.362;4.978;2022-08-05T00:37:21;101648.80;;;20.81;41.91
55687;BME280;41911;52.362;4.978;2022-08-05T00:37:52;101647.26;;;20.36;42.27
55687;BME280;41911;52.362;4.978;2022-08-05T00:38:23;101647.72;;;20.42;42.30
55687;BME280;41911;52.362;4.978;2022-08-05T00:38:54;101645.14;;;20.52;42.21
55687;BME280;41911;52.362;4.978;2022-08-05T00:39:25;101647.35;;;20.61;42.11
55687;BME280;41911;52.362;4.978;2022-08-05T00:39:56;101645.92;;;20.77;41.80
55687;BME280;41911;52.362;4.978;2022-08-05T00:40:30;101645.16;;;20.66;42.02
55687;BME280;41911;52.362;4.978;2022-08-05T00:41:01;101647.08;;;20.71;41.91
55687;BME280;41911;52.362;4.978;2022-08-05T00:41:33;101648.98;;;21.00;41.93
55687;BME280;41911;52.362;4.978;2022-08-05T00:42:04;101649.34;;;20.48;41.91
55687;BME280;41911;52.362;4.978;2022-08-05T00:42:37;101651.39;;;20.82;41.89
55687;BME280;41911;52.362;4.978;2022-08-05T00:43:08;101654.41;;;20.97;41.65
55687;BME280;41911;52.362;4.978;2022-08-05T00:43:39;101656.44;;;20.84;41.85
55687;BME280;41911;52.362;4.978;2022-08-05T00:44:10;101658.48;;;20.49;41.82
55687;BME280;41911;52.362;4.978;2022-08-05T00:44:41;101659.25;;;20.83;41.73
55687;BME280;41911;52.362;4.978;2022-08-05T00:45:12;101659.66;;;20.21;41.88
55687;BME280;41911;52.362;4.978;2022-08-05T00:45:43;101659.60;;;20.45;42.15
55687;BME280;41911;52.362;4.978;2022-08-05T00:46:15;101661.40;;;20.32;42.48
55687;BME280;41911;52.362;4.978;2022-08-05T00:46:46;101660.93;;;20.46;42.07
55687;BME280;41911;52.362;4.978;2022-08-05T00:47:17;101663.37;;;20.31;42.15
55687;BME280;41911;52.362;4.978;2022-08-05T00:47:47;101662.50;;;20.63;42.04
55687;BME280;41911;52.362;4.978;2022-08-05T00:48:20;101663.59;;;20.32;42.08
55687;BME280;41911;52.362;4.978;2022-08-05T00:48:52;101666.87;;;20.64;42.06
55687;BME280;41911;52.362;4.978;2022-08-05T00:49:23;101664.52;;;20.26;41.96
55687;BME280;41911;52.362;4.978;2022-08-05T00:49:54;101662.32;;;20.14;42.04
55687;BME280;41911;52.362;4.978;2022-08-05T00:50:25;101661.64;;;20.09;42.06
55687;BME280;41911;52.362;4.978;2022-08-05T00:50:56;101660.43;;;20.30;42.22
55687;BME280;41911;52.362;4.978;2022-08-05T00:51:27;101658.03;;;20.73;42.11
55687;BME280;41911;52.362;4.978;2022-08-05T00:51:58;101657.69;;;20.15;42.12
55687;BME280;41911;52.362;4.978;2022-08-05T00:52:29;101654.27;;;20.38;42.28
55687;BME280;41911;52.362;4.978;2022-08-05T00:53:00;101653.52;;;20.42;42.08
55687;BME280;41911;52.362;4.978;2022-08-05T00:53:31;101653.35;;;20.23;42.00
55687;BME280;41911;52.362;4.978;2022-08-05T00:54:03;101655.31;;;20.28;42.41
55687;BME280;41911;52.362;4.978;2022-08-05T00:54:34;101656.62;;;20.25;42.38
55687;BME280;41911;52.362;4.978;2022-08-05T00:55:05;101655.14;;;20.17;42.55
55687;BME280;41911;52.362;4.978;2022-08-05T00:55:36;101658.32;;;20.21;42.63
55687;BME280;41911;52.362;4.978;2022-08-05T00:56:09;101657.85;;;20.13;42.62
55687;BME280;41911;52.362;4.978;2022-08-05T00:56:40;101660.85;;;20.10;42.76
55687;BME280;41911;52.362;4.978;2022-08-05T00:57:11;101662.31;;;20.09;42.79
55687;BME280;41911;52.362;4.978;2022-08-05T00:57:42;101662.71;;;20.27;42.58
55687;BME280;41911;52.362;4.978;2022-08-05T00:58:14;101663.18;;;20.16;42.71
55687;BME280;41911;52.362;4.978;2022-08-05T00:58:46;101660.84;;;20.07;42.75
55687;BME280;41911;52.362;4.978;2022-08-05T00:59:17;101658.23;;;20.38;42.62
55687;BME280;41911;52.362;4.978;2022-08-05T00:59:48;101657.44;;;20.02;42.74
55687;BME280;41911;52.362;4.978;2022-08-05T01:00:19;101658.28;;;20.14;42.68
55687;BME280;41911;52.362;4.978;2022-08-05T01:00:50;101657.18;;;19.88;42.98
55687;BME280;41911;52.362;4.978;2022-08-05T01:01:21;101654.87;;;20.00;42.89
55687;BME280;41911;52.362;4.978;2022-08-05T01:01:52;101657.31;;;20.28;42.94
55687;BME280;41911;52.362;4.978;2022-08-05T01:02:23;101652.88;;;19.85;43.01
55687;BME280;41911;52.362;4.978;2022-08-05T01:02:55;101652.11;;;20.11;42.92
55687;BME280;41911;52.362;4.978;2022-08-05T01:03:26;101649.27;;;19.79;43.04
55687;BME280;41911;52.362;4.978;2022-08-05T01:03:57;101650.85;;;19.80;43.21
55687;BME280;41911;52.362;4.978;2022-08-05T01:04:28;101649.68;;;19.97;43.21
55687;BME280;41911;52.362;4.978;2022-08-05T01:04:59;101652.72;;;20.39;43.18
55687;BME280;41911;52.362;4.978;2022-08-05T01:05:30;101653.79;;;20.08;43.32
55687;BME280;41911;52.362;4.978;2022-08-05T01:06:01;101651.61;;;19.96;43.34
55687;BME280;41911;52.362;4.978;2022-08-05T01:06:32;101651.86;;;20.23;43.30
55687;BME280;41911;52.362;4.978;2022-08-05T01:07:03;101651.84;;;19.86;43.12
55687;BME280;41911;52.362;4.978;2022-08-05T01:07:34;101648.61;;;20.36;43.21
55687;BME280;41911;52.362;4.978;2022-08-05T01:08:06;101651.62;;;20.08;43.28
55687;BME280;41911;52.362;4.978;2022-08-05T01:08:37;101649.95;;;19.71;43.23
55687;BME280;41911;52.362;4.978;2022-08-05T01:09:08;101648.09;;;20.22;43.36
55687;BME280;41911;52.362;4.978;2022-08-05T01:09:39;101646.41;;;19.75;43.33
55687;BME280;41911;52.362;4.978;2022-08-05T01:10:13;101650.00;;;19.98;43.40
55687;BME280;41911;52.362;4.978;2022-08-05T01:10:50;101647.55;;;19.88;43.57
55687;BME280;41911;52.362;4.978;2022-08-05T01:11:29;101651.29;;;20.26;43.39
55687;BME280;41911;52.362;4.978;2022-08-05T01:12:05;101654.18;;;19.53;43.52
55687;BME280;41911;52.362;4.978;2022-08-05T01:12:47;101653.81;;;19.54;43.59
55687;BME280;41911;52.362;4.978;2022-08-05T01:13:26;101657.87;;;19.90;43.56
55687;BME280;41911;52.362;4.978;2022-08-05T01:14:04;101658.24;;;19.74;43.55
55687;BME280;41911;52.362;4.978;2022-08-05T01:14:40;101660.24;;;20.08;43.64
55687;BME280;41911;52.362;4.978;2022-08-05T01:15:16;101663.35;;;20.00;43.39
55687;BME280;41911;52.362;4.978;2022-08-05T01:15:55;101663.94;;;19.82;43.27
55687;BME280;41911;52.362;4.978;2022-08-05T01:16:37;101661.96;;;20.05;43.20
55687;BME280;41911;52.362;4.978;2022-08-05T01:17:12;101659.22;;;19.85;43.58
55687;BME280;41911;52.362;4.978;2022-08-05T01:17:49;101660.10;;;19.96;43.48
55687;BME280;41911;52.362;4.978;2022-08-05T01:18:24;101656.90;;;19.63;43.56
55687;BME280;41911;52.362;4.978;2022-08-05T01:19:01;101656.96;;;19.76;43.60
55687;BME280;41911;52.362;4.978;2022-08-05T01:19:39;101656.08;;;19.69;43.58
55687;BME280;41911;52.362;4.978;2022-08-05T01:20:29;101652.54;;;20.15;43.11
55687;BME280;41911;52.362;4.978;2022-08-05T01:21:09;101652.92;;;20.46;43.18
55687;BME280;41911;52.362;4.978;2022-08-05T01:22:29;101652.23;;;20.10;43.37
55687;BME280;41911;52.362;4.978;2022-08-05T01:23:10;101649.78;;;20.19;43.49
55687;BME280;41911;52.362;4.978;2022-08-05T01:23:56;101650.59;;;19.90;43.32
55687;BME280;41911;52.362;4.978;2022-08-05T01:24:49;101655.43;;;20.08;43.14
55687;BME280;41911;52.362;4.978;2022-08-05T01:25:39;101655.35;;;20.35;43.30
55687;BME280;41911;52.362;4.978;2022-08-05T01:26:30;101656.24;;;20.02;43.41
55687;BME280;41911;52.362;4.978;2022-08-05T01:27:12;101658.31;;;20.22;43.11
55687;BME280;41911;52.362;4.978;2022-08-05T01:28:06;101656.78;;;20.39;42.85
55687;BME280;41911;52.362;4.978;2022-08-05T01:28:45;101655.32;;;20.20;43.10
55687;BME280;41911;52.362;4.978;2022-08-05T01:29:28;101654.66;;;20.49;43.07
55687;BME280;41911;52.362;4.978;2022-08-05T01:30:03;101652.28;;;20.26;42.92
55687;BME280;41911;52.362;4.978;2022-08-05T01:30:39;101654.57;;;19.88;43.02
55687;BME280;41911;52.362;4.978;2022-08-05T01:31:18;101654.62;;;20.04;42.85
55687;BME280;41911;52.362;4.978;2022-08-05T01:31:59;101655.84;;;19.84;43.34
55687;BME280;41911;52.362;4.978;2022-08-05T01:32:34;101656.77;;;19.79;43.44
55687;BME280;41911;52.362;4.978;2022-08-05T01:33:08;101658.33;;;19.90;43.41
55687;BME280;41911;52.362;4.978;2022-08-05T01:33:44;101659.49;;;19.82;43.56
55687;BME280;41911;52.362;4.978;2022-08-05T01:34:21;101660.64;;;20.08;43.68
55687;BME280;41911;52.362;4.978;2022-08-05T01:34:59;101667.28;;;19.89;43.95
55687;BME280;41911;52.362;4.978;2022-08-05T01:35:32;101667.84;;;19.67;44.35
55687;BME280;41911;52.362;4.978;2022-08-05T01:36:08;101671.98;;;19.78;44.11
55687;BME280;41911;52.362;4.978;2022-08-05T01:36:48;101673.74;;;19.31;44.01
55687;BME280;41911;52.362;4.978;2022-08-05T01:37:25;101675.89;;;19.88;44.06
55687;BME280;41911;52.362;4.978;2022-08-05T01:38:02;101674.53;;;19.49;44.30
55687;BME280;41911;52.362;4.978;2022-08-05T01:38:35;101668.72;;;19.91;44.05
55687;BME280;41911;52.362;4.978;2022-08-05T01:39:07;101669.11;;;19.35;43.98
55687;BME280;41911;52.362;4.978;2022-08-05T01:39:41;101663.90;;;20.02;43.91
55687;BME280;41911;52.362;4.978;2022-08-05T01:40:15;101663.92;;;19.93;43.91
55687;BME280;41911;52.362;4.978;2022-08-05T01:40:47;101661.10;;;19.56;43.89
55687;BME280;41911;52.362;4.978;2022-08-05T01:41:23;101661.94;;;19.79;44.10
55687;BME280;41911;52.362;4.978;2022-08-05T01:41:56;101659.08;;;19.98;43.92
55687;BME280;41911;52.362;4.978;2022-08-05T01:42:31;101660.96;;;19.76;43.74
55687;BME280;41911;52.362;4.978;2022-08-05T01:43:03;101663.40;;;19.69;43.80
55687;BME280;41911;52.362;4.978;2022-08-05T01:43:36;101666.00;;;19.73;43.85
55687;BME280;41911;52.362;4.978;2022-08-05T01:44:09;101663.92;;;19.80;43.50
55687;BME280;41911;52.362;4.978;2022-08-05T01:44:43;101667.24;;;19.99;43.52
55687;BME280;41911;52.362;4.978;2022-08-05T01:45:15;101666.27;;;19.79;43.42
55687;BME280;41911;52.362;4.978;2022-08-05T01:45:49;101667.86;;;20.12;43.36
55687;BME280;41911;52.362;4.978;2022-08-05T01:46:23;101670.97;;;19.70;43.37
55687;BME280;41911;52.362;4.978;2022-08-05T01:46:54;101672.50;;;19.71;43.47
55687;BME280;41911;52.362;4.978;2022-08-05T01:47:29;101671.57;;;19.91;43.26
55687;BME280;41911;52.362;4.978;2022-08-05T01:48:05;101674.48;;;19.50;43.44
55687;BME280;41911;52.362;4.978;2022-08-05T01:48:38;101674.72;;;20.30;43.15
55687;BME280;41911;52.362;4.978;2022-08-05T01:49:14;101675.02;;;19.94;43.28
55687;BME280;41911;52.362;4.978;2022-08-05T01:49:47;101677.99;;;19.62;43.70
55687;BME280;41911;52.362;4.978;2022-08-05T01:50:26;101676.57;;;20.08;43.56
55687;BME280;41911;52.362;4.978;2022-08-05T01:51:00;101673.41;;;19.99;43.30
55687;BME280;41911;52.362;4.978;2022-08-05T01:51:34;101679.20;;;20.15;43.52
55687;BME280;41911;52.362;4.978;2022-08-05T01:52:08;101676.30;;;19.82;43.39
55687;BME280;41911;52.362;4.978;2022-08-05T01:52:42;101680.48;;;19.68;43.43
55687;BME280;41911;52.362;4.978;2022-08-05T01:53:15;101679.87;;;19.68;43.30
55687;BME280;41911;52.362;4.978;2022-08-05T01:53:49;101682.15;;;19.68;43.49
55687;BME280;41911;52.362;4.978;2022-08-05T01:54:21;101681.69;;;19.90;43.70
55687;BME280;41911;52.362;4.978;2022-08-05T01:54:56;101682.04;;;19.82;43.54
55687;BME280;41911;52.362;4.978;2022-08-05T01:55:33;101676.95;;;19.73;43.38
55687;BME280;41911;52.362;4.978;2022-08-05T01:56:05;101679.64;;;19.91;43.32
55687;BME280;41911;52.362;4.978;2022-08-05T01:56:39;101676.20;;;19.87;43.39
55687;BME280;41911;52.362;4.978;2022-08-05T01:57:15;101679.86;;;20.20;43.28
55687;BME280;41911;52.362;4.978;2022-08-05T01:57:51;101679.23;;;20.29;43.29
55687;BME280;41911;52.362;4.978;2022-08-05T01:58:24;101680.68;;;19.88;43.16
55687;BME280;41911;52.362;4.978;2022-08-05T01:58:56;101682.76;;;19.82;43.07
55687;BME280;41911;52.362;4.978;2022-08-05T01:59:30;101681.39;;;19.88;42.58
55687;BME280;41911;52.362;4.978;2022-08-05T02:00:05;101683.67;;;19.92;42.51
55687;BME280;41911;52.362;4.978;2022-08-05T02:00:40;101685.18;;;19.89;42.48
55687;BME280;41911;52.362;4.978;2022-08-05T02:01:13;101685.67;;;19.96;42.55
55687;BME280;41911;52.362;4.978;2022-08-05T02:01:53;101685.40;;;20.58;42.53
55687;BME280;41911;52.362;4.978;2022-08-05T02:02:27;101686.87;;;19.93;42.50
55687;BME280;41911;52.362;4.978;2022-08-05T02:03:07;101683.47;;;20.02;42.37
55687;BME280;41911;52.362;4.978;2022-08-05T02:03:44;101684.17;;;20.02;42.30
55687;BME280;41911;52.362;4.978;2022-08-05T02:04:17;101683.01;;;20.08;42.23
55687;BME280;41911;52.362;4.978;2022-08-05T02:04:50;101679.57;;;20.08;42.08
55687;BME280;41911;52.362;4.978;2022-08-05T02:05:26;101681.12;;;20.18;41.96
55687;BME280;41911;52.362;4.978;2022-08-05T02:05:59;101677.88;;;20.32;41.84
55687;BME280;41911;52.362;4.978;2022-08-05T02:06:30;101677.39;;;20.51;41.80
55687;BME280;41911;52.362;4.978;2022-08-05T02:07:02;101680.10;;;20.32;41.57
55687;BME280;41911;52.362;4.978;2022-08-05T02:07:34;101680.24;;;20.35;41.51
55687;BME280;41911;52.362;4.978;2022-08-05T02:08:06;101679.97;;;20.17;41.73
55687;BME280;41911;52.362;4.978;2022-08-05T02:08:37;101682.02;;;20.15;41.69
55687;BME280;41911;52.362;4.978;2022-08-05T02:09:08;101680.46;;;19.94;41.90
55687;BME280;41911;52.362;4.978;2022-08-05T02:09:39;101681.95;;;19.81;42.12
55687;BME280;41911;52.362;4.978;2022-08-05T02:10:10;101679.78;;;19.96;41.83
55687;BME280;41911;52.362;4.978;2022-08-05T02:10:45;101682.66;;;19.74;41.94
55687;BME280;41911;52.362;4.978;2022-08-05T02:11:18;101680.81;;;20.40;41.95
55687;BME280;41911;52.362;4.978;2022-08-05T02:12:02;101679.84;;;20.11;41.86
55687;BME280;41911;52.362;4.978;2022-08-05T02:12:42;101678.73;;;19.94;42.01
55687;BME280;41911;52.362;4.978;2022-08-05T02:13:22;101679.85;;;20.40;41.77
55687;BME280;41911;52.362;4.978;2022-08-05T02:14:01;101678.46;;;19.97;41.91
55687;BME280;41911;52.362;4.978;2022-08-05T02:14:41;101680.59;;;20.02;41.78
55687;BME280;41911;52.362;4.978;2022-08-05T02:15:16;101679.17;;;20.25;41.94
55687;BME280;41911;52.362;4.978;2022-08-05T02:15:54;101676.90;;;19.99;41.90
55687;BME280;41911;52.362;4.978;2022-08-05T02:16:33;101677.64;;;20.02;41.92
55687;BME280;41911;52.362;4.978;2022-08-05T02:17:12;101675.68;;;20.26;41.89
55687;BME280;41911;52.362;4.978;2022-08-05T02:17:51;101674.26;;;20.29;42.04
55687;BME280;41911;52.362;4.978;2022-08-05T02:18:25;101674.23;;;19.94;41.96
55687;BME280;41911;52.362;4.978;2022-08-05T02:19:05;101671.44;;;19.89;42.14
55687;BME280;41911;52.362;4.978;2022-08-05T02:19:45;101670.63;;;20.44;42.27
55687;BME280;41911;52.362;4.978;2022-08-05T02:20:21;101669.63;;;19.84;42.19
55687;BME280;41911;52.362;4.978;2022-08-05T02:20:56;101670.61;;;19.87;42.27
55687;BME280;41911;52.362;4.978;2022-08-05T02:21:32;101670.77;;;19.65;42.38
55687;BME280;41911;52.362;4.978;2022-08-05T02:22:12;101669.88;;;19.86;42.61
55687;BME280;41911;52.362;4.978;2022-08-05T02:22:52;101666.65;;;19.56;42.63
55687;BME280;41911;52.362;4.978;2022-08-05T02:23:30;101666.16;;;19.99;42.50
55687;BME280;41911;52.362;4.978;2022-08-05T02:24:07;101665.39;;;19.66;42.68
55687;BME280;41911;52.362;4.978;2022-08-05T02:24:43;101667.27;;;20.23;42.38
55687;BME280;41911;52.362;4.978;2022-08-05T02:25:18;101667.68;;;20.45;42.45
55687;BME280;41911;52.362;4.978;2022-08-05T02:25:52;101668.88;;;20.01;42.40
55687;BME280;41911;52.362;4.978;2022-08-05T02:26:32;101667.34;;;19.75;42.73
55687;BME280;41911;52.362;4.978;2022-08-05T02:27:10;101669.59;;;19.98;42.44
55687;BME280;41911;52.362;4.978;2022-08-05T02:27:42;101668.32;;;19.56;42.62
55687;BME280;41911;52.362;4.978;2022-08-05T02:28:14;101674.81;;;19.42;42.87
55687;BME280;41911;52.362;4.978;2022-08-05T02:28:47;101671.82;;;19.63;42.92
55687;BME280;41911;52.362;4.978;2022-08-05T02:29:23;101672.82;;;20.05;42.79
55687;BME280;41911;52.362;4.978;2022-08-05T02:29:56;101670.35;;;19.82;42.54
55687;BME280;41911;52.362;4.978;2022-08-05T02:30:37;101669.27;;;19.95;42.61
55687;BME280;41911;52.362;4.978;2022-08-05T02:31:13;101668.12;;;20.00;42.69
55687;BME280;41911;52.362;4.978;2022-08-05T02:31:46;101670.90;;;19.59;42.97
55687;BME280;41911;52.362;4.978;2022-08-05T02:32:20;101668.08;;;19.69;42.98
55687;BME280;41911;52.362;4.978;2022-08-05T02:32:55;101666.24;;;19.59;42.79
55687;BME280;41911;52.362;4.978;2022-08-05T02:33:29;101662.45;;;19.85;42.72
55687;BME280;41911;52.362;4.978;2022-08-05T02:34:05;101663.69;;;20.08;42.71
55687;BME280;41911;52.362;4.978;2022-08-05T02:34:36;101666.49;;;19.42;42.83
55687;BME280;41911;52.362;4.978;2022-08-05T02:35:10;101665.62;;;19.84;43.06
55687;BME280;41911;52.362;4.978;2022-08-05T02:35:44;101665.00;;;19.35;43.19
55687;BME280;41911;52.362;4.978;2022-08-05T02:36:19;101663.99;;;19.48;42.98
55687;BME280;41911;52.362;4.978;2022-08-05T02:36:56;101666.06;;;19.50;43.15
55687;BME280;41911;52.362;4.978;2022-08-05T02:37:30;101665.55;;;19.72;43.16
55687;BME280;41911;52.362;4.978;2022-08-05T02:38:04;101664.83;;;19.33;43.19
55687;BME280;41911;52.362;4.978;2022-08-05T02:38:36;101665.14;;;19.75;43.16
55687;BME280;41911;52.362;4.978;2022-08-05T02:39:09;101666.52;;;19.77;42.98
55687;BME280;41911;52.362;4.978;2022-08-05T02:39:42;101663.97;;;19.42;43.09
55687;BME280;41911;52.362;4.978;2022-08-05T02:40:16;101662.51;;;19.50;43.03
55687;BME280;41911;52.362;4.978;2022-08-05T02:40:48;101662.28;;;19.71;43.27
55687;BME280;41911;52.362;4.978;2022-08-05T02:41:21;101662.23;;;19.58;43.25
55687;BME280;41911;52.362;4.978;2022-08-05T02:41:54;101659.73;;;19.35;43.62
55687;BME280;41911;52.362;4.978;2022-08-05T02:42:25;101658.48;;;19.35;43.64
55687;BME280;41911;52.362;4.978;2022-08-05T02:42:58;101663.14;;;19.52;43.52
55687;BME280;41911;52.362;4.978;2022-08-05T02:43:31;101658.95;;;19.33;43.43
55687;BME280;41911;52.362;4.978;2022-08-05T02:44:07;101660.06;;;19.43;43.42
55687;BME280;41911;52.362;4.978;2022-08-05T02:44:40;101656.65;;;19.35;43.47
55687;BME280;41911;52.362;4.978;2022-08-05T02:45:12;101659.25;;;19.53;43.30
55687;BME280;41911;52.362;4.978;2022-08-05T02:45:45;101661.79;;;19.52;43.33
55687;BME280;41911;52.362;4.978;2022-08-05T02:46:19;101660.62;;;19.12;43.65
55687;BME280;41911;52.362;4.978;2022-08-05T02:46:51;101660.57;;;19.12;43.75
55687;BME280;41911;52.362;4.978;2022-08-05T02:47:25;101660.51;;;19.23;43.59
55687;BME280;41911;52.362;4.978;2022-08-05T02:47:57;101661.80;;;19.26;43.61
55687;BME280;41911;52.362;4.978;2022-08-05T02:48:30;101662.08;;;19.27;43.59
55687;BME280;41911;52.362;4.978;2022-08-05T02:49:02;101659.53;;;19.85;43.68
55687;BME280;41911;52.362;4.978;2022-08-05T02:49:36;101665.82;;;19.04;43.85
55687;BME280;41911;52.362;4.978;2022-08-05T02:50:09;101664.38;;;18.78;44.16
55687;BME280;41911;52.362;4.978;2022-08-05T02:50:42;101662.84;;;18.87;44.02
55687;BME280;41911;52.362;4.978;2022-08-05T02:51:15;101665.10;;;18.91;44.03
55687;BME280;41911;52.362;4.978;2022-08-05T02:51:47;101666.55;;;18.92;44.04
55687;BME280;41911;52.362;4.978;2022-08-05T02:52:19;101667.45;;;19.26;43.98
55687;BME280;41911;52.362;4.978;2022-08-05T02:52:51;101665.46;;;18.70;44.17
55687;BME280;41911;52.362;4.978;2022-08-05T02:53:23;101663.55;;;18.83;44.26
55687;BME280;41911;52.362;4.978;2022-08-05T02:53:54;101662.56;;;18.72;44.40
55687;BME280;41911;52.362;4.978;2022-08-05T02:54:27;101664.79;;;18.73;44.25
55687;BME280;41911;52.362;4.978;2022-08-05T02:54:59;101659.47;;;19.01;44.41
55687;BME280;41911;52.362;4.978;2022-08-05T02:55:31;101660.57;;;18.83;44.37
55687;BME280;41911;52.362;4.978;2022-08-05T02:56:03;101662.48;;;18.68;44.37
55687;BME280;41911;52.362;4.978;2022-08-05T02:56:35;101660.65;;;18.82;44.17
55687;BME280;41911;52.362;4.978;2022-08-05T02:57:10;101656.89;;;18.92;44.08